createdAt,value
2023-04-07T00:00:28.577Z,564.6
2023-04-07T00:01:30.716Z,564.7
2023-04-07T00:02:32.861Z,564.7
2023-04-07T00:03:35.435Z,564.7
2023-04-07T00:04:38.037Z,565.1
2023-04-07T00:05:39.873Z,564.6
2023-04-07T00:06:41.725Z,564.5
2023-04-07T00:07:57.962Z,564.6
2023-04-07T00:08:59.837Z,564.5
2023-04-07T00:10:01.724Z,564.4
2023-04-07T00:11:03.533Z,564.2
2023-04-07T00:12:05.383Z,564
2023-04-07T00:13:07.335Z,564.2
2023-04-07T00:14:09.192Z,564.4
2023-04-07T00:15:11.044Z,564.9
2023-04-07T00:16:13.199Z,564.4
2023-04-07T00:17:15.051Z,564.6
2023-04-07T00:18:16.942Z,564.5
2023-04-07T00:19:18.987Z,564.7
2023-04-07T00:20:20.806Z,564.7
2023-04-07T00:21:22.659Z,564.6
2023-04-07T00:22:24.499Z,564.5
2023-04-07T00:23:26.290Z,565
2023-04-07T00:24:35.351Z,564.8
2023-04-07T00:25:37.228Z,565.1
2023-04-07T00:26:39.169Z,564.7
2023-04-07T00:27:41.029Z,564.9
2023-04-07T00:28:42.879Z,564.8
2023-04-07T00:29:44.722Z,564.8
2023-04-07T00:30:46.582Z,565.4
2023-04-07T00:31:48.443Z,565.5
2023-04-07T00:32:50.591Z,565
2023-04-07T00:33:52.429Z,565.3
2023-04-07T00:34:54.345Z,565.3
2023-04-07T00:35:56.141Z,565.6
2023-04-07T00:36:57.992Z,565.2
2023-04-07T00:37:59.830Z,565.1
2023-04-07T00:39:01.778Z,565.2
2023-04-07T00:40:03.735Z,565.3
2023-04-07T00:41:05.580Z,565.3
2023-04-07T00:42:07.484Z,564.9
2023-04-07T00:43:09.186Z,564.7
2023-04-07T00:44:10.962Z,564.9
2023-04-07T00:45:12.891Z,565.1
2023-04-07T00:46:15.087Z,565
2023-04-07T00:47:17.116Z,565
2023-04-07T00:48:18.940Z,565.3
2023-04-07T00:49:20.901Z,565.3
2023-04-07T00:50:22.846Z,565.3
2023-04-07T00:51:24.696Z,565.4
2023-04-07T00:52:26.657Z,565.3
2023-04-07T00:53:29.019Z,565
2023-04-07T00:54:31.073Z,564.7
2023-04-07T00:55:32.928Z,564.9
2023-04-07T00:56:34.875Z,565.1
2023-04-07T00:57:36.714Z,565.2
2023-04-07T00:58:38.541Z,565
2023-04-07T00:59:40.430Z,565
2023-04-07T01:00:42.286Z,564.8
2023-04-07T01:01:44.654Z,565
2023-04-07T01:02:47.440Z,565.3
2023-04-07T01:03:50.129Z,565.3
2023-04-07T01:04:52.834Z,565.2
2023-04-07T01:05:54.701Z,565.3
2023-04-07T01:06:56.547Z,565.2
2023-04-07T01:07:58.426Z,565.3
2023-04-07T01:09:00.341Z,565.4
2023-04-07T01:10:01.989Z,565.7
2023-04-07T01:11:03.843Z,565.6
2023-04-07T01:12:05.901Z,565.4
2023-04-07T01:13:07.648Z,565.3
2023-04-07T01:14:09.487Z,565
2023-04-07T01:15:11.335Z,565.1
2023-04-07T01:16:13.295Z,565.6
2023-04-07T01:17:15.148Z,565.4
2023-04-07T01:18:17.023Z,565.4
2023-04-07T01:19:18.942Z,565.6
2023-04-07T01:20:20.794Z,565.4
2023-04-07T01:21:22.642Z,565.7
2023-04-07T01:22:24.442Z,565.7
2023-04-07T01:23:26.144Z,566
2023-04-07T01:24:27.989Z,565.9
2023-04-07T01:25:29.842Z,566.1
2023-04-07T01:26:31.789Z,566
2023-04-07T01:27:33.653Z,566.2
2023-04-07T01:28:35.501Z,566.3
2023-04-07T01:29:37.454Z,566.1
2023-04-07T01:30:39.304Z,566.4
2023-04-07T01:31:41.583Z,566.7
2023-04-07T01:32:43.661Z,566.6
2023-04-07T01:33:45.686Z,566.8
2023-04-07T01:34:47.610Z,566.5
2023-04-07T01:35:49.452Z,566.7
2023-04-07T01:36:51.475Z,567
2023-04-07T01:37:53.365Z,566.9
2023-04-07T01:38:55.219Z,567.3
2023-04-07T01:39:57.176Z,566.9
2023-04-07T01:40:59.068Z,567.1
2023-04-07T01:42:00.886Z,567
2023-04-07T01:43:02.729Z,567.3
2023-04-07T01:44:04.578Z,566.9
2023-04-07T01:45:06.525Z,567.5
2023-04-07T01:46:08.378Z,567.5
2023-04-07T01:47:10.449Z,567.6
2023-04-07T01:48:12.628Z,567.7
2023-04-07T01:49:14.568Z,567.2
2023-04-07T01:50:16.392Z,567.3
2023-04-07T01:51:18.214Z,567.2
2023-04-07T01:52:20.093Z,567.3
2023-04-07T01:53:21.942Z,567.4
2023-04-07T01:54:23.794Z,567.4
2023-04-07T01:55:25.553Z,567.9
2023-04-07T01:56:27.495Z,567.7
2023-04-07T01:57:29.281Z,568
2023-04-07T01:58:31.029Z,568
2023-04-07T01:59:32.771Z,568
2023-04-07T02:00:34.795Z,567.8
2023-04-07T02:01:37.318Z,568.2
2023-04-07T02:02:39.864Z,567.9
2023-04-07T02:03:42.356Z,567.8
2023-04-07T02:04:44.376Z,568.2
2023-04-07T02:05:46.199Z,568.2
2023-04-07T02:06:48.152Z,568.1
2023-04-07T02:07:49.998Z,568.1
2023-04-07T02:08:51.847Z,567.8
2023-04-07T02:09:53.806Z,567.7
2023-04-07T02:10:55.599Z,567.7
2023-04-07T02:11:57.503Z,567.8
2023-04-07T02:12:59.354Z,567.8
2023-04-07T02:14:01.163Z,567.8
2023-04-07T02:15:03.053Z,568.1
2023-04-07T02:16:05.001Z,568.1
2023-04-07T02:17:06.962Z,568.2
2023-04-07T02:18:09.123Z,567.9
2023-04-07T02:19:10.960Z,567.8
2023-04-07T02:20:12.949Z,567.8
2023-04-07T02:21:14.845Z,567.8
2023-04-07T02:22:16.898Z,567.7
2023-04-07T02:23:18.779Z,567.5
2023-04-07T02:24:20.615Z,567.8
2023-04-07T02:25:22.578Z,568.3
2023-04-07T02:26:24.439Z,568
2023-04-07T02:27:26.373Z,568.2
2023-04-07T02:28:28.233Z,568.2
2023-04-07T02:29:30.074Z,568.1
2023-04-07T02:30:32.029Z,568
2023-04-07T02:31:34.106Z,567.6
2023-04-07T02:32:36.361Z,567.9
2023-04-07T02:33:38.197Z,567.8
2023-04-07T02:34:40.053Z,568
2023-04-07T02:35:42.309Z,568.4
2023-04-07T02:36:44.378Z,568
2023-04-07T02:37:46.308Z,568.1
2023-04-07T02:38:48.266Z,568.6
2023-04-07T02:39:50.130Z,568.2
2023-04-07T02:40:51.969Z,568.2
2023-04-07T02:41:53.809Z,568.1
2023-04-07T02:42:55.683Z,567.8
2023-04-07T02:43:58.744Z,568.2
2023-04-07T02:45:00.652Z,568.3
2023-04-07T02:46:02.868Z,568.4
2023-04-07T02:47:04.922Z,567.8
2023-04-07T02:48:06.766Z,567.6
2023-04-07T02:49:08.745Z,567.6
2023-04-07T02:50:10.693Z,567.6
2023-04-07T02:51:12.529Z,567.9
2023-04-07T02:52:14.547Z,567.9
2023-04-07T02:53:16.342Z,567.5
2023-04-07T02:54:18.171Z,567.7
2023-04-07T02:55:20.022Z,567.4
2023-04-07T02:56:21.972Z,567.4
2023-04-07T02:57:23.813Z,567.4
2023-04-07T02:58:25.669Z,567.3
2023-04-07T02:59:27.616Z,567.1
2023-04-07T03:00:29.460Z,567.1
2023-04-07T03:01:31.809Z,567.2
2023-04-07T03:02:34.796Z,567
2023-04-07T03:03:37.210Z,566.7
2023-04-07T03:04:39.224Z,566.8
2023-04-07T03:05:41.174Z,566.8
2023-04-07T03:06:43.045Z,566.8
2023-04-07T03:07:44.981Z,566.6
2023-04-07T03:08:46.833Z,566.4
2023-04-07T03:09:48.774Z,566.7
2023-04-07T03:10:50.830Z,566.4
2023-04-07T03:11:52.689Z,566.2
2023-04-07T03:12:54.540Z,566.2
2023-04-07T03:13:56.388Z,566.7
2023-04-07T03:14:58.130Z,566.3
2023-04-07T03:16:00.088Z,566.4
2023-04-07T03:17:02.060Z,566.4
2023-04-07T03:18:04.175Z,566.5
2023-04-07T03:19:06.242Z,566.3
2023-04-07T03:20:08.102Z,566
2023-04-07T03:21:10.057Z,566
2023-04-07T03:22:11.928Z,565.9
2023-04-07T03:23:13.850Z,566.2
2023-04-07T03:24:15.704Z,566
2023-04-07T03:25:17.551Z,566.2
2023-04-07T03:26:19.330Z,566.2
2023-04-07T03:27:21.154Z,566.2
2023-04-07T03:28:22.961Z,566.5
2023-04-07T03:29:24.852Z,566.3
2023-04-07T03:30:26.697Z,566.7
2023-04-07T03:31:28.648Z,566.7
2023-04-07T03:32:30.635Z,566.5
2023-04-07T03:33:32.595Z,566.5
2023-04-07T03:34:34.513Z,566.6
2023-04-07T03:35:36.724Z,567.1
2023-04-07T03:36:38.617Z,567.4
2023-04-07T03:37:40.502Z,566.9
2023-04-07T03:38:42.429Z,566.8
2023-04-07T03:39:44.358Z,567.5
2023-04-07T03:40:46.224Z,567.2
2023-04-07T03:41:48.079Z,567.1
2023-04-07T03:42:50.033Z,567.4
2023-04-07T03:43:53.399Z,567.4
2023-04-07T03:44:55.482Z,567.6
2023-04-07T03:45:57.539Z,567.7
2023-04-07T03:46:59.368Z,567.4
2023-04-07T03:48:01.452Z,567.6
2023-04-07T03:49:03.387Z,567.2
2023-04-07T03:50:05.269Z,567.3
2023-04-07T03:51:07.084Z,567.5
2023-04-07T03:52:08.939Z,567.1
2023-04-07T03:53:10.822Z,567.1
2023-04-07T03:54:12.732Z,566.7
2023-04-07T03:55:14.581Z,566.6
2023-04-07T03:56:16.382Z,566.7
2023-04-07T03:57:18.391Z,567
2023-04-07T03:58:20.235Z,566.7
2023-04-07T03:59:22.098Z,567.2
2023-04-07T04:00:23.942Z,566.7
2023-04-07T04:01:25.882Z,566.5
2023-04-07T04:02:27.983Z,566.2
2023-04-07T04:03:30.530Z,566.5
2023-04-07T04:04:32.590Z,566.3
2023-04-07T04:05:34.449Z,565.5
2023-04-07T04:06:36.586Z,565.7
2023-04-07T04:07:38.525Z,565.8
2023-04-07T04:08:40.528Z,566
2023-04-07T04:09:42.547Z,565.7
2023-04-07T04:10:44.389Z,565.8
2023-04-07T04:11:46.272Z,566
2023-04-07T04:12:48.092Z,565.7
2023-04-07T04:13:49.938Z,565.8
2023-04-07T04:14:51.797Z,565.8
2023-04-07T04:15:54.001Z,565.9
2023-04-07T04:16:55.793Z,565.4
2023-04-07T04:17:57.663Z,566
2023-04-07T04:18:59.484Z,565.5
2023-04-07T04:20:01.477Z,565.5
2023-04-07T04:21:03.405Z,564.9
2023-04-07T04:22:05.247Z,564.8
2023-04-07T04:23:07.099Z,564.9
2023-04-07T04:24:09.003Z,565
2023-04-07T04:25:10.900Z,564.9
2023-04-07T04:26:12.877Z,564.6
2023-04-07T04:27:14.694Z,564.7
2023-04-07T04:28:16.443Z,564.4
2023-04-07T04:29:18.307Z,564.8
2023-04-07T04:30:20.173Z,564.9
2023-04-07T04:31:22.386Z,565.1
2023-04-07T04:32:24.272Z,564.9
2023-04-07T04:33:26.118Z,564.6
2023-04-07T04:34:28.160Z,564.4
2023-04-07T04:35:30.030Z,564.3
2023-04-07T04:36:32.089Z,564
2023-04-07T04:37:33.913Z,564.1
2023-04-07T04:38:35.943Z,564.2
2023-04-07T04:39:37.844Z,564
2023-04-07T04:40:39.670Z,563.9
2023-04-07T04:41:41.538Z,564.1
2023-04-07T04:42:43.469Z,563.7
2023-04-07T04:43:48.081Z,563.5
2023-04-07T04:44:50.043Z,563.6
2023-04-07T04:45:51.894Z,563.6
2023-04-07T04:46:53.862Z,563
2023-04-07T04:47:55.758Z,563.1
2023-04-07T04:48:57.647Z,563.2
2023-04-07T04:49:59.501Z,562.9
2023-04-07T04:51:01.267Z,562.5
2023-04-07T04:52:03.099Z,562.4
2023-04-07T04:53:04.852Z,562.2
2023-04-07T04:54:06.789Z,562.2
2023-04-07T04:55:08.785Z,562.5
2023-04-07T04:56:10.705Z,562.5
2023-04-07T04:57:12.446Z,562.8
2023-04-07T04:58:14.294Z,562.7
2023-04-07T04:59:16.153Z,562.5
2023-04-07T05:00:18.096Z,562.2
2023-04-07T05:01:20.181Z,561.8
2023-04-07T05:02:22.876Z,561.9
2023-04-07T05:03:25.591Z,562.1
2023-04-07T05:04:28.155Z,562
2023-04-07T05:05:30.212Z,562
2023-04-07T05:06:32.068Z,562
2023-04-07T05:07:33.925Z,562.4
2023-04-07T05:08:35.773Z,562.1
2023-04-07T05:09:37.819Z,561.9
2023-04-07T05:10:39.559Z,562
2023-04-07T05:11:41.534Z,561.9
2023-04-07T05:12:43.384Z,561.5
2023-04-07T05:13:45.328Z,561.8
2023-04-07T05:14:47.182Z,561.3
2023-04-07T05:15:49.176Z,561.4
2023-04-07T05:16:51.091Z,561.2
2023-04-07T05:17:53.107Z,561.3
2023-04-07T05:18:54.919Z,561
2023-04-07T05:19:56.714Z,561.1
2023-04-07T05:20:58.582Z,561.3
2023-04-07T05:22:00.432Z,560.8
2023-04-07T05:23:02.290Z,560.7
2023-04-07T05:24:04.144Z,561
2023-04-07T05:25:05.985Z,561
2023-04-07T05:26:07.877Z,560.6
2023-04-07T05:27:09.679Z,560.1
2023-04-07T05:28:11.640Z,560.4
2023-04-07T05:29:13.497Z,560.4
2023-04-07T05:30:15.440Z,561
2023-04-07T05:31:17.440Z,560.8
2023-04-07T05:32:19.172Z,560.7
2023-04-07T05:33:20.925Z,560.7
2023-04-07T05:34:22.732Z,560.1
2023-04-07T05:35:24.690Z,560
2023-04-07T05:36:26.644Z,560.1
2023-04-07T05:37:28.590Z,560.1
2023-04-07T05:38:30.442Z,560.3
2023-04-07T05:39:32.212Z,560
2023-04-07T05:40:38.140Z,559.9
2023-04-07T05:41:40.115Z,560.1
2023-04-07T05:42:42.019Z,560.1
2023-04-07T05:43:43.889Z,560.1
2023-04-07T05:44:45.750Z,560.2
2023-04-07T05:45:47.752Z,560.1
2023-04-07T05:46:49.655Z,560.2
2023-04-07T05:47:51.597Z,560.2
2023-04-07T05:48:53.444Z,560.3
2023-04-07T05:49:55.237Z,559.9
2023-04-07T05:50:57.068Z,560.4
2023-04-07T05:51:59.004Z,559.9
2023-04-07T05:53:00.857Z,559.6
2023-04-07T05:54:02.711Z,560
2023-04-07T05:55:04.553Z,559.8
2023-04-07T05:56:06.369Z,560
2023-04-07T05:57:08.377Z,559.9
2023-04-07T05:58:10.291Z,560.4
2023-04-07T05:59:12.153Z,560.4
2023-04-07T06:00:13.977Z,560.1
2023-04-07T06:01:15.719Z,560.1
2023-04-07T06:02:18.239Z,560.1
2023-04-07T06:03:20.600Z,560.1
2023-04-07T06:04:22.426Z,560.2
2023-04-07T06:05:24.431Z,560.3
2023-04-07T06:06:26.266Z,560.2
2023-04-07T06:07:27.975Z,560.3
2023-04-07T06:08:29.764Z,560.2
2023-04-07T06:09:31.451Z,560.1
2023-04-07T06:10:33.198Z,560.1
2023-04-07T06:11:35.099Z,560.4
2023-04-07T06:12:37.027Z,560.1
2023-04-07T06:13:38.867Z,560.1
2023-04-07T06:14:40.835Z,560.1
2023-04-07T06:15:42.672Z,560.4
2023-04-07T06:16:44.683Z,560.1
2023-04-07T06:17:46.791Z,560.3
2023-04-07T06:18:48.637Z,559.9
2023-04-07T06:19:50.391Z,559.6
2023-04-07T06:20:52.237Z,559.8
2023-04-07T06:21:54.087Z,559.8
2023-04-07T06:22:55.905Z,559.9
2023-04-07T06:23:57.783Z,559.6
2023-04-07T06:24:59.637Z,560
2023-04-07T06:26:01.480Z,560.1
2023-04-07T06:27:03.340Z,560
2023-04-07T06:28:05.308Z,560.3
2023-04-07T06:29:07.141Z,560.2
2023-04-07T06:30:08.996Z,560.6
2023-04-07T06:31:11.015Z,560.1
2023-04-07T06:32:12.889Z,560.5
2023-04-07T06:33:14.748Z,560.4
2023-04-07T06:34:16.611Z,560.6
2023-04-07T06:35:18.353Z,560.3
2023-04-07T06:36:20.234Z,560.5
2023-04-07T06:37:22.180Z,560.4
2023-04-07T06:38:23.892Z,560.4
2023-04-07T06:39:25.836Z,560.5
2023-04-07T06:40:27.713Z,560.7
2023-04-07T06:41:29.485Z,560.3
2023-04-07T06:42:31.305Z,560.6
2023-04-07T06:43:33.271Z,560.5
2023-04-07T06:44:35.005Z,561.2
2023-04-07T06:45:36.753Z,560.8
2023-04-07T06:46:38.737Z,560.9
2023-04-07T06:47:40.982Z,560.8
2023-04-07T06:48:42.906Z,561
2023-04-07T06:49:44.758Z,560.5
2023-04-07T06:50:46.596Z,560.5
2023-04-07T06:51:48.446Z,560.4
2023-04-07T06:52:50.168Z,560.5
2023-04-07T06:53:52.149Z,560.3
2023-04-07T06:54:54.000Z,560
2023-04-07T06:55:56.061Z,560.5
2023-04-07T06:56:57.898Z,560.3
2023-04-07T06:57:59.628Z,560.9
2023-04-07T06:59:01.527Z,560.7
2023-04-07T07:00:03.564Z,560.8
2023-04-07T07:01:05.392Z,560.4
2023-04-07T07:02:08.121Z,560.4
2023-04-07T07:03:11.445Z,561
2023-04-07T07:04:13.759Z,560.8
2023-04-07T07:05:15.676Z,560.9
2023-04-07T07:06:17.627Z,561.3
2023-04-07T07:07:19.474Z,561.3
2023-04-07T07:08:21.222Z,561
2023-04-07T07:09:23.032Z,560.6
2023-04-07T07:10:25.024Z,561
2023-04-07T07:11:26.878Z,560.8
2023-04-07T07:12:29.353Z,560.8
2023-04-07T07:13:31.133Z,560.7
2023-04-07T07:14:33.015Z,560.5
2023-04-07T07:15:35.145Z,560.5
2023-04-07T07:16:36.958Z,560.5
2023-04-07T07:17:39.040Z,560.5
2023-04-07T07:18:40.871Z,560.2
2023-04-07T07:19:42.583Z,560.3
2023-04-07T07:20:44.458Z,560.2
2023-04-07T07:21:46.216Z,560.3
2023-04-07T07:22:47.954Z,559.9
2023-04-07T07:23:50.931Z,559.8
2023-04-07T07:24:52.781Z,559.7
2023-04-07T07:25:55.031Z,560.1
2023-04-07T07:26:56.826Z,560.1
2023-04-07T07:27:58.637Z,560.2
2023-04-07T07:29:00.491Z,559.6
2023-04-07T07:30:02.431Z,559.6
2023-04-07T07:31:04.408Z,559.7
2023-04-07T07:32:06.250Z,559.2
2023-04-07T07:33:08.100Z,559.2
2023-04-07T07:34:09.966Z,559.2
2023-04-07T07:35:11.922Z,559.4
2023-04-07T07:36:13.658Z,559.1
2023-04-07T07:37:15.590Z,559.2
2023-04-07T07:38:17.371Z,559.6
2023-04-07T07:39:19.290Z,559
2023-04-07T07:40:20.981Z,558.8
2023-04-07T07:41:22.888Z,558.3
2023-04-07T07:42:24.880Z,558.3
2023-04-07T07:43:26.661Z,558.1
2023-04-07T07:44:32.817Z,558.3
2023-04-07T07:45:34.607Z,558.3
2023-04-07T07:46:36.528Z,558.3
2023-04-07T07:47:38.574Z,558.7
2023-04-07T07:48:40.453Z,558.6
2023-04-07T07:49:42.508Z,558
2023-04-07T07:50:44.242Z,558.2
2023-04-07T07:51:46.191Z,558.1
2023-04-07T07:52:47.958Z,558.4
2023-04-07T07:53:50.634Z,558.9
2023-04-07T07:54:52.472Z,559.1
2023-04-07T07:55:54.195Z,558.5
2023-04-07T07:56:56.176Z,558.5
2023-04-07T07:57:58.021Z,558.1
2023-04-07T07:58:59.786Z,558.4
2023-04-07T08:00:01.713Z,558.3
2023-04-07T08:01:03.595Z,558.3
2023-04-07T08:02:05.729Z,558.3
2023-04-07T08:03:07.988Z,558.6
2023-04-07T08:04:10.592Z,558.6
2023-04-07T08:05:12.617Z,558.6
2023-04-07T08:06:14.561Z,559.1
2023-04-07T08:07:16.462Z,558.4
2023-04-07T08:08:18.358Z,559.1
2023-04-07T08:09:20.152Z,558.4
2023-04-07T08:10:21.908Z,559
2023-04-07T08:11:23.749Z,559.2
2023-04-07T08:12:25.567Z,558.6
2023-04-07T08:13:27.279Z,558.9
2023-04-07T08:14:29.062Z,558.7
2023-04-07T08:15:30.838Z,559.1
2023-04-07T08:16:32.902Z,559
2023-04-07T08:17:35.035Z,559
2023-04-07T08:18:36.982Z,559.3
2023-04-07T08:19:38.719Z,559.4
2023-04-07T08:20:40.664Z,558.6
2023-04-07T08:21:42.506Z,559.2
2023-04-07T08:22:44.287Z,559
2023-04-07T08:23:47.327Z,559
2023-04-07T08:24:49.293Z,558.9
2023-04-07T08:25:51.218Z,559.1
2023-04-07T08:26:52.887Z,558.8
2023-04-07T08:27:54.819Z,558.8
2023-04-07T08:28:56.701Z,558.9
2023-04-07T08:29:58.484Z,559.4
2023-04-07T08:31:00.399Z,559.2
2023-04-07T08:32:02.680Z,558.8
2023-04-07T08:33:04.726Z,558.8
2023-04-07T08:34:06.664Z,558.6
2023-04-07T08:35:08.642Z,558.8
2023-04-07T08:36:10.496Z,558.8
2023-04-07T08:37:12.463Z,558.8
2023-04-07T08:38:14.369Z,558.9
2023-04-07T08:39:16.093Z,559.4
2023-04-07T08:40:17.897Z,559.4
2023-04-07T08:41:19.805Z,559.2
2023-04-07T08:42:21.604Z,559.7
2023-04-07T08:43:23.349Z,559.5
2023-04-07T08:44:25.035Z,559.4
2023-04-07T08:45:26.855Z,559.5
2023-04-07T08:46:28.685Z,559.2
2023-04-07T08:47:30.924Z,559.2
2023-04-07T08:48:32.729Z,559.2
2023-04-07T08:49:34.517Z,559.5
2023-04-07T08:50:36.449Z,559.5
2023-04-07T08:51:38.401Z,559.2
2023-04-07T08:52:40.107Z,559.5
2023-04-07T08:53:41.803Z,559.4
2023-04-07T08:54:43.622Z,559.3
2023-04-07T08:55:45.414Z,559.4
2023-04-07T08:56:47.363Z,559.1
2023-04-07T08:57:49.354Z,559.1
2023-04-07T08:58:51.170Z,559.1
2023-04-07T08:59:52.953Z,559.3
2023-04-07T09:00:54.913Z,558.9
2023-04-07T09:01:57.148Z,559.7
2023-04-07T09:02:59.252Z,559
2023-04-07T09:04:01.369Z,559.2
2023-04-07T09:05:03.179Z,559.4
2023-04-07T09:06:05.034Z,559.3
2023-04-07T09:07:06.745Z,559
2023-04-07T09:08:08.840Z,559.5
2023-04-07T09:09:10.616Z,559.5
2023-04-07T09:10:12.449Z,559.7
2023-04-07T09:11:14.296Z,559.1
2023-04-07T09:12:16.125Z,558.9
2023-04-07T09:13:17.976Z,558.8
2023-04-07T09:14:19.826Z,559.4
2023-04-07T09:15:21.786Z,559.1
2023-04-07T09:16:23.656Z,558.7
2023-04-07T09:17:25.387Z,558.8
2023-04-07T09:18:27.362Z,559.3
2023-04-07T09:19:29.190Z,559.2
2023-04-07T09:20:30.931Z,559.2
2023-04-07T09:21:32.586Z,559
2023-04-07T09:22:34.365Z,558.5
2023-04-07T09:23:36.286Z,558.5
2023-04-07T09:24:38.132Z,558.4
2023-04-07T09:25:39.982Z,558.6
2023-04-07T09:26:41.754Z,558.9
2023-04-07T09:27:43.582Z,558.7
2023-04-07T09:28:45.564Z,558.8
2023-04-07T09:29:47.324Z,559.1
2023-04-07T09:30:49.030Z,559
2023-04-07T09:31:51.089Z,559.2
2023-04-07T09:32:53.150Z,558.8
2023-04-07T09:33:55.111Z,558.8
2023-04-07T09:34:56.819Z,558.7
2023-04-07T09:35:59.002Z,558.4
2023-04-07T09:37:00.778Z,558.4
2023-04-07T09:38:02.569Z,558.4
2023-04-07T09:39:04.434Z,559.1
2023-04-07T09:40:06.296Z,559
2023-04-07T09:41:08.501Z,558.8
2023-04-07T09:42:10.294Z,558.3
2023-04-07T09:43:11.917Z,558.6
2023-04-07T09:44:13.899Z,558.9
2023-04-07T09:45:40.532Z,558.3
2023-04-07T09:46:42.581Z,558.4
2023-04-07T09:47:44.672Z,558.1
2023-04-07T09:48:46.506Z,558.4
2023-04-07T09:49:48.356Z,558.5
2023-04-07T09:50:50.289Z,558
2023-04-07T09:51:52.007Z,558.1
2023-04-07T09:52:54.327Z,557.6
2023-04-07T09:53:56.163Z,557.5
2023-04-07T09:54:58.094Z,557.5
2023-04-07T09:55:59.952Z,557.3
2023-04-07T09:57:01.797Z,557.5
2023-04-07T09:58:03.646Z,557.3
2023-04-07T09:59:05.258Z,557.7
2023-04-07T10:00:07.069Z,557.8
2023-04-07T10:01:08.995Z,557.6
2023-04-07T10:02:11.612Z,557
2023-04-07T10:03:13.573Z,557.4
2023-04-07T10:04:15.702Z,557.3
2023-04-07T10:05:17.538Z,557
2023-04-07T10:06:19.389Z,557.3
2023-04-07T10:07:21.154Z,557.1
2023-04-07T10:08:22.975Z,557.5
2023-04-07T10:09:24.920Z,557.9
2023-04-07T10:10:26.658Z,557.9
2023-04-07T10:11:28.414Z,558
2023-04-07T10:12:32.757Z,557.9
2023-04-07T10:13:34.580Z,558
2023-04-07T10:14:39.793Z,558.2
2023-04-07T10:15:41.987Z,558.6
2023-04-07T10:16:44.048Z,558.5
2023-04-07T10:17:46.010Z,558.1
2023-04-07T10:18:47.912Z,558.2
2023-04-07T10:19:49.670Z,558.3
2023-04-07T10:20:52.061Z,558.1
2023-04-07T10:21:53.872Z,558.4
2023-04-07T10:22:55.636Z,558.6
2023-04-07T10:23:57.315Z,558.3
2023-04-07T10:24:59.125Z,558.3
2023-04-07T10:26:00.863Z,558.4
2023-04-07T10:27:02.725Z,558.6
2023-04-07T10:28:04.567Z,558.6
2023-04-07T10:29:06.371Z,558.7
2023-04-07T10:30:08.255Z,558.7
2023-04-07T10:31:10.275Z,558.5
2023-04-07T10:32:11.973Z,558.7
2023-04-07T10:33:13.789Z,558.6
2023-04-07T10:34:15.561Z,558.3
2023-04-07T10:35:17.528Z,558
2023-04-07T10:36:19.507Z,558.4
2023-04-07T10:37:21.556Z,558.1
2023-04-07T10:38:23.697Z,558
2023-04-07T10:39:25.461Z,558.1
2023-04-07T10:40:27.389Z,557.8
2023-04-07T10:41:29.135Z,558.2
2023-04-07T10:42:30.883Z,558
2023-04-07T10:43:32.662Z,558.3
2023-04-07T10:44:34.472Z,557.7
2023-04-07T10:45:36.262Z,557.8
2023-04-07T10:46:38.621Z,557.8
2023-04-07T10:47:40.661Z,558.1
2023-04-07T10:48:42.488Z,557.7
2023-04-07T10:49:44.233Z,557.4
2023-04-07T10:50:46.096Z,557.3
2023-04-07T10:51:48.071Z,557.6
2023-04-07T10:52:49.839Z,557.6
2023-04-07T10:53:52.463Z,557.6
2023-04-07T10:54:54.309Z,557.7
2023-04-07T10:55:56.057Z,557.5
2023-04-07T10:56:58.005Z,557.4
2023-04-07T10:57:59.861Z,557.5
2023-04-07T10:59:01.606Z,557.8
2023-04-07T11:00:03.365Z,557.5
2023-04-07T11:01:05.245Z,557.6
2023-04-07T11:02:07.472Z,557.6
2023-04-07T11:03:09.889Z,557.4
2023-04-07T11:04:12.200Z,557.6
2023-04-07T11:05:14.145Z,557.7
2023-04-07T11:06:15.891Z,557.4
2023-04-07T11:07:17.633Z,557.8
2023-04-07T11:08:19.486Z,557.4
2023-04-07T11:09:21.360Z,557.2
2023-04-07T11:10:23.373Z,557.3
2023-04-07T11:11:25.171Z,557.2
2023-04-07T11:12:26.993Z,556.9
2023-04-07T11:13:28.833Z,556.8
2023-04-07T11:14:30.692Z,557
2023-04-07T11:15:32.638Z,556.9
2023-04-07T11:16:34.813Z,556.6
2023-04-07T11:17:36.761Z,556.6
2023-04-07T11:18:38.607Z,556.7
2023-04-07T11:19:40.446Z,556.8
2023-04-07T11:20:46.393Z,556.9
2023-04-07T11:21:48.255Z,557.2
2023-04-07T11:22:50.079Z,556.8
2023-04-07T11:23:52.465Z,556.9
2023-04-07T11:24:54.242Z,556.5
2023-04-07T11:25:56.302Z,556.9
2023-04-07T11:26:58.227Z,556.4
2023-04-07T11:28:00.120Z,556.6
2023-04-07T11:29:02.016Z,557
2023-04-07T11:30:03.869Z,556.6
2023-04-07T11:31:05.886Z,556.7
2023-04-07T11:32:07.709Z,556.7
2023-04-07T11:33:09.537Z,556.8
2023-04-07T11:34:11.252Z,556.7
2023-04-07T11:35:13.075Z,556.8
2023-04-07T11:36:14.994Z,556.5
2023-04-07T11:37:16.764Z,556.9
2023-04-07T11:38:18.798Z,556.8
2023-04-07T11:39:20.652Z,557.1
2023-04-07T11:40:22.470Z,556.8
2023-04-07T11:41:24.253Z,556.9
2023-04-07T11:42:25.960Z,556.7
2023-04-07T11:43:27.810Z,556.8
2023-04-07T11:44:29.574Z,556.9
2023-04-07T11:45:31.510Z,557.1
2023-04-07T11:46:33.707Z,556.9
2023-04-07T11:47:35.818Z,557.2
2023-04-07T11:48:37.904Z,557.2
2023-04-07T11:49:39.743Z,557
2023-04-07T11:50:41.579Z,557
2023-04-07T11:51:43.437Z,557.2
2023-04-07T11:52:45.305Z,557
2023-04-07T11:53:48.395Z,557.2
2023-04-07T11:54:50.266Z,557.4
2023-04-07T11:55:51.960Z,556.9
2023-04-07T11:56:53.629Z,557.3
2023-04-07T11:57:55.468Z,556.6
2023-04-07T11:58:57.386Z,557.2
2023-04-07T11:59:59.157Z,556.4
2023-04-07T12:01:00.828Z,556.4
2023-04-07T12:02:03.110Z,556.9
2023-04-07T12:03:05.670Z,557
2023-04-07T12:04:08.509Z,556.7
2023-04-07T12:05:11.345Z,556.7
2023-04-07T12:06:13.048Z,556.7
2023-04-07T12:07:14.789Z,557
2023-04-07T12:08:16.618Z,557.1
2023-04-07T12:09:18.406Z,556.9
2023-04-07T12:10:20.327Z,556.7
2023-04-07T12:11:22.172Z,556.8
2023-04-07T12:12:24.012Z,557
2023-04-07T12:13:25.766Z,556.8
2023-04-07T12:14:27.885Z,556.8
2023-04-07T12:15:29.856Z,556.9
2023-04-07T12:16:32.178Z,557
2023-04-07T12:17:34.241Z,556.6
2023-04-07T12:18:36.159Z,556.6
2023-04-07T12:19:37.919Z,556.4
2023-04-07T12:20:39.857Z,556.5
2023-04-07T12:21:41.697Z,556.5
2023-04-07T12:22:43.552Z,556.7
2023-04-07T12:23:45.519Z,556.7
2023-04-07T12:24:47.580Z,556.7
2023-04-07T12:25:49.506Z,557
2023-04-07T12:26:51.459Z,556.8
2023-04-07T12:27:53.420Z,556.6
2023-04-07T12:28:55.267Z,556.4
2023-04-07T12:29:57.036Z,556.4
2023-04-07T12:30:58.895Z,556.4
2023-04-07T12:32:01.061Z,556.3
2023-04-07T12:33:02.976Z,556.4
2023-04-07T12:34:04.932Z,556
2023-04-07T12:35:06.881Z,556.1
2023-04-07T12:36:08.856Z,556.2
2023-04-07T12:37:10.573Z,556.2
2023-04-07T12:38:12.350Z,556.3
2023-04-07T12:39:14.179Z,556.1
2023-04-07T12:40:16.150Z,556
2023-04-07T12:41:18.082Z,556.1
2023-04-07T12:42:19.990Z,556.4
2023-04-07T12:43:21.683Z,556.5
2023-04-07T12:44:23.522Z,556.6
2023-04-07T12:45:25.366Z,556.8
2023-04-07T12:46:27.717Z,557
2023-04-07T12:47:30.037Z,556.8
2023-04-07T12:48:31.884Z,556.5
2023-04-07T12:49:33.792Z,556.5
2023-04-07T12:50:35.570Z,556.7
2023-04-07T12:51:37.266Z,556.7
2023-04-07T12:52:39.160Z,556.5
2023-04-07T12:53:40.902Z,556.1
2023-04-07T12:54:42.742Z,556
2023-04-07T12:55:44.628Z,556
2023-04-07T12:56:46.535Z,555.8
2023-04-07T12:57:48.497Z,556.2
2023-04-07T12:58:50.353Z,555.8
2023-04-07T12:59:52.198Z,556
2023-04-07T13:00:54.259Z,556.1
2023-04-07T13:01:56.740Z,555.7
2023-04-07T13:02:59.661Z,555.4
2023-04-07T13:04:01.833Z,555.1
2023-04-07T13:05:03.703Z,555.6
2023-04-07T13:06:05.643Z,555.5
2023-04-07T13:07:07.390Z,555.5
2023-04-07T13:08:09.346Z,555.1
2023-04-07T13:09:11.204Z,555
2023-04-07T13:10:13.012Z,555.2
2023-04-07T13:11:15.026Z,555.2
2023-04-07T13:12:16.753Z,555.2
2023-04-07T13:13:18.591Z,555.3
2023-04-07T13:14:20.439Z,555.4
2023-04-07T13:15:22.202Z,555.3
2023-04-07T13:16:24.405Z,555.4
2023-04-07T13:17:26.428Z,555.4
2023-04-07T13:18:28.374Z,555.2
2023-04-07T13:19:30.213Z,555
2023-04-07T13:20:32.366Z,555.2
2023-04-07T13:21:48.680Z,555.2
2023-04-07T13:23:10.575Z,554.9
2023-04-07T13:24:12.431Z,555
2023-04-07T13:25:14.270Z,555